sensor_id;sensor_type;location;lat;lon;timestamp;pressure;altitude;pressure_sealevel;temperature;humidity
62103;BME280;48077;48.104;11.702;2023-01-15T00:01:42;94692.09;;;5.30;62.54
62103;BME280;48077;48.104;11.702;2023-01-15T00:04:06;94703.41;;;5.37;63.08
62103;BME280;48077;48.104;11.702;2023-01-15T00:06:31;94698.56;;;5.34;64.28
62103;BME280;48077;48.104;11.702;2023-01-15T00:08:57;94699.81;;;5.31;65.33
62103;BME280;48077;48.104;11.702;2023-01-15T00:11:21;94691.53;;;5.27;66.57
62103;BME280;48077;48.104;11.702;2023-01-15T00:13:45;94678.38;;;5.21;67.98
62103;BME280;48077;48.104;11.702;2023-01-15T00:16:11;94676.94;;;5.18;69.45
62103;BME280;48077;48.104;11.702;2023-01-15T00:18:36;94664.25;;;5.09;71.84
62103;BME280;48077;48.104;11.702;2023-01-15T00:21:00;94651.31;;;5.00;72.50
62103;BME280;48077;48.104;11.702;2023-01-15T00:23:24;94643.22;;;4.95;72.49
62103;BME280;48077;48.104;11.702;2023-01-15T00:26:09;94646.06;;;4.94;71.91
62103;BME280;48077;48.104;11.702;2023-01-15T00:28:58;94622.75;;;4.91;70.96
62103;BME280;48077;48.104;11.702;2023-01-15T00:31:21;94622.22;;;4.82;70.74
62103;BME280;48077;48.104;11.702;2023-01-15T00:33:44;94631.72;;;4.90;69.87
62103;BME280;48077;48.104;11.702;2023-01-15T00:36:08;94638.09;;;5.00;68.53
62103;BME280;48077;48.104;11.702;2023-01-15T00:38:31;94610.34;;;4.91;68.37
62103;BME280;48077;48.104;11.702;2023-01-15T00:40:54;94606.22;;;4.95;68.03
62103;BME280;48077;48.104;11.702;2023-01-15T00:43:18;94620.78;;;5.04;67.95
62103;BME280;48077;48.104;11.702;2023-01-15T00:45:41;94616.72;;;5.02;66.97
62103;BME280;48077;48.104;11.702;2023-01-15T00:48:07;94614.66;;;5.04;67.73
62103;BME280;48077;48.104;11.702;2023-01-15T00:50:31;94611.00;;;5.05;68.09
62103;BME280;48077;48.104;11.702;2023-01-15T00:52:54;94619.16;;;5.03;69.12
62103;BME280;48077;48.104;11.702;2023-01-15T00:55:17;94614.75;;;4.97;68.87
62103;BME280;48077;48.104;11.702;2023-01-15T00:57:41;94614.38;;;4.94;69.46
62103;BME280;48077;48.104;11.702;2023-01-15T01:00:05;94600.50;;;4.80;70.56
62103;BME280;48077;48.104;11.702;2023-01-15T01:02:28;94629.00;;;4.96;70.91
62103;BME280;48077;48.104;11.702;2023-01-15T01:04:51;94622.59;;;4.85;71.81
62103;BME280;48077;48.104;11.702;2023-01-15T01:07:15;94612.06;;;4.79;72.65
62103;BME280;48077;48.104;11.702;2023-01-15T01:09:39;94608.09;;;4.70;72.52
62103;BME280;48077;48.104;11.702;2023-01-15T01:12:02;94617.88;;;4.69;73.22
62103;BME280;48077;48.104;11.702;2023-01-15T01:14:26;94636.22;;;4.82;73.65
62103;BME280;48077;48.104;11.702;2023-01-15T01:16:49;94643.34;;;4.82;74.75
62103;BME280;48077;48.104;11.702;2023-01-15T01:19:18;94624.16;;;4.68;73.45
62103;BME280;48077;48.104;11.702;2023-01-15T01:21:43;94629.09;;;4.83;74.29
62103;BME280;48077;48.104;11.702;2023-01-15T01:24:07;94618.81;;;4.75;75.46
62103;BME280;48077;48.104;11.702;2023-01-15T01:26:32;94639.09;;;4.81;76.45
62103;BME280;48077;48.104;11.702;2023-01-15T01:28:56;94605.53;;;4.63;76.04
62103;BME280;48077;48.104;11.702;2023-01-15T01:31:20;94627.94;;;4.79;77.47
62103;BME280;48077;48.104;11.702;2023-01-15T01:33:47;94619.06;;;4.73;78.94
62103;BME280;48077;48.104;11.702;2023-01-15T01:36:11;94596.19;;;4.60;79.68
62103;BME280;48077;48.104;11.702;2023-01-15T01:38:34;94612.63;;;4.62;79.96
62103;BME280;48077;48.104;11.702;2023-01-15T01:40:58;94605.28;;;4.64;80.79
62103;BME280;48077;48.104;11.702;2023-01-15T01:43:27;94597.81;;;4.61;81.91
62103;BME280;48077;48.104;11.702;2023-01-15T01:45:50;94599.41;;;4.62;81.74
62103;BME280;48077;48.104;11.702;2023-01-15T01:48:16;94578.94;;;4.58;81.51
62103;BME280;48077;48.104;11.702;2023-01-15T01:50:41;94571.03;;;4.58;80.63
62103;BME280;48077;48.104;11.702;2023-01-15T01:53:07;94531.97;;;4.41;80.81
62103;BME280;48077;48.104;11.702;2023-01-15T01:55:34;94568.56;;;4.63;81.56
62103;BME280;48077;48.104;11.702;2023-01-15T01:57:59;94525.47;;;4.44;82.32
62103;BME280;48077;48.104;11.702;2023-01-15T02:00:25;94532.94;;;4.47;83.79
62103;BME280;48077;48.104;11.702;2023-01-15T02:02:50;94527.06;;;4.45;84.41
62103;BME280;48077;48.104;11.702;2023-01-15T02:05:26;94516.13;;;4.41;85.83
62103;BME280;48077;48.104;11.702;2023-01-15T02:07:51;94504.63;;;4.36;86.84
62103;BME280;48077;48.104;11.702;2023-01-15T02:10:15;94513.28;;;4.43;87.81
62103;BME280;48077;48.104;11.702;2023-01-15T02:12:39;94509.47;;;4.39;88.21
62103;BME280;48077;48.104;11.702;2023-01-15T02:15:17;94491.25;;;4.31;88.23
62103;BME280;48077;48.104;11.702;2023-01-15T02:17:55;94496.47;;;4.37;88.50
62103;BME280;48077;48.104;11.702;2023-01-15T02:20:28;94488.19;;;4.34;87.33
62103;BME280;48077;48.104;11.702;2023-01-15T02:22:56;94489.72;;;4.41;86.86
62103;BME280;48077;48.104;11.702;2023-01-15T02:28:24;94486.06;;;4.42;86.70
62103;BME280;48077;48.104;11.702;2023-01-15T02:30:54;94485.91;;;4.37;87.30
62103;BME280;48077;48.104;11.702;2023-01-15T02:33:25;94466.13;;;4.28;87.71
62103;BME280;48077;48.104;11.702;2023-01-15T02:35:54;94477.78;;;4.39;87.75
62103;BME280;48077;48.104;11.702;2023-01-15T02:38:21;94481.81;;;4.41;87.38
62103;BME280;48077;48.104;11.702;2023-01-15T02:40:49;94468.69;;;4.35;87.49
62103;BME280;48077;48.104;11.702;2023-01-15T02:43:16;94471.78;;;4.32;87.27
62103;BME280;48077;48.104;11.702;2023-01-15T02:45:41;94454.38;;;4.24;88.36
62103;BME280;48077;48.104;11.702;2023-01-15T02:48:10;94459.59;;;4.31;88.46
62103;BME280;48077;48.104;11.702;2023-01-15T02:50:42;94475.72;;;4.41;88.80
62103;BME280;48077;48.104;11.702;2023-01-15T02:53:09;94471.50;;;4.40;89.05
62103;BME280;48077;48.104;11.702;2023-01-15T02:55:38;94453.72;;;4.29;88.88
62103;BME280;48077;48.104;11.702;2023-01-15T02:58:08;94453.28;;;4.32;88.05
62103;BME280;48077;48.104;11.702;2023-01-15T03:00:35;94461.72;;;4.40;88.14
62103;BME280;48077;48.104;11.702;2023-01-15T03:03:07;94454.47;;;4.36;87.38
62103;BME280;48077;48.104;11.702;2023-01-15T03:05:42;94460.25;;;4.44;86.62
62103;BME280;48077;48.104;11.702;2023-01-15T03:08:08;94456.59;;;4.45;86.74
62103;BME280;48077;48.104;11.702;2023-01-15T03:10:41;94450.88;;;4.49;86.57
62103;BME280;48077;48.104;11.702;2023-01-15T03:13:08;94432.22;;;4.43;86.59
62103;BME280;48077;48.104;11.702;2023-01-15T03:18:28;94417.84;;;4.39;85.62
62103;BME280;48077;48.104;11.702;2023-01-15T03:20:56;94431.72;;;4.53;85.35
62103;BME280;48077;48.104;11.702;2023-01-15T03:23:22;94430.72;;;4.54;84.92
62103;BME280;48077;48.104;11.702;2023-01-15T03:25:49;94429.81;;;4.60;83.48
62103;BME280;48077;48.104;11.702;2023-01-15T03:28:15;94433.63;;;4.64;83.80
62103;BME280;48077;48.104;11.702;2023-01-15T03:30:40;94395.44;;;4.49;83.71
62103;BME280;48077;48.104;11.702;2023-01-15T03:33:03;94417.94;;;4.70;83.62
62103;BME280;48077;48.104;11.702;2023-01-15T03:35:50;94415.06;;;4.71;84.13
62103;BME280;48077;48.104;11.702;2023-01-15T03:38:18;94409.78;;;4.71;84.84
62103;BME280;48077;48.104;11.702;2023-01-15T03:41:14;94413.44;;;4.70;86.43
62103;BME280;48077;48.104;11.702;2023-01-15T03:46:44;94406.63;;;4.62;89.40
62103;BME280;48077;48.104;11.702;2023-01-15T03:52:10;94388.38;;;4.61;89.43
62103;BME280;48077;48.104;11.702;2023-01-15T03:54:47;94393.75;;;4.54;89.66
62103;BME280;48077;48.104;11.702;2023-01-15T03:57:35;94390.44;;;4.59;90.13
62103;BME280;48077;48.104;11.702;2023-01-15T04:00:06;94396.50;;;4.59;90.55
62103;BME280;48077;48.104;11.702;2023-01-15T04:02:31;94391.91;;;4.55;90.98
62103;BME280;48077;48.104;11.702;2023-01-15T04:04:56;94403.63;;;4.59;90.44
62103;BME280;48077;48.104;11.702;2023-01-15T04:07:21;94375.47;;;4.53;90.93
62103;BME280;48077;48.104;11.702;2023-01-15T04:09:44;94374.44;;;4.54;90.67
62103;BME280;48077;48.104;11.702;2023-01-15T04:12:08;94370.19;;;4.53;90.31
62103;BME280;48077;48.104;11.702;2023-01-15T04:14:33;94372.03;;;4.52;90.17
62103;BME280;48077;48.104;11.702;2023-01-15T04:16:59;94376.97;;;4.60;90.70
62103;BME280;48077;48.104;11.702;2023-01-15T04:19:22;94339.91;;;4.37;90.59
62103;BME280;48077;48.104;11.702;2023-01-15T04:21:46;94374.44;;;4.54;91.24
62103;BME280;48077;48.104;11.702;2023-01-15T04:24:09;94369.16;;;4.54;90.57
62103;BME280;48077;48.104;11.702;2023-01-15T04:26:32;94382.06;;;4.62;90.72
62103;BME280;48077;48.104;11.702;2023-01-15T04:28:56;94354.94;;;4.55;90.58
62103;BME280;48077;48.104;11.702;2023-01-15T04:31:21;94366.06;;;4.57;90.92
62103;BME280;48077;48.104;11.702;2023-01-15T04:33:45;94380.00;;;4.64;90.61
62103;BME280;48077;48.104;11.702;2023-01-15T04:36:08;94365.88;;;4.58;91.21
62103;BME280;48077;48.104;11.702;2023-01-15T04:38:32;94362.88;;;4.66;91.18
62103;BME280;48077;48.104;11.702;2023-01-15T04:41:00;94348.50;;;4.62;91.47
62103;BME280;48077;48.104;11.702;2023-01-15T04:43:59;94346.78;;;4.56;91.43
62103;BME280;48077;48.104;11.702;2023-01-15T04:48:58;94332.75;;;4.56;91.62
62103;BME280;48077;48.104;11.702;2023-01-15T04:51:21;94331.66;;;4.63;92.04
62103;BME280;48077;48.104;11.702;2023-01-15T04:53:44;94309.09;;;4.49;92.11
62103;BME280;48077;48.104;11.702;2023-01-15T04:56:08;94312.69;;;4.55;92.23
62103;BME280;48077;48.104;11.702;2023-01-15T04:58:32;94333.84;;;4.66;92.07
62103;BME280;48077;48.104;11.702;2023-01-15T05:00:56;94329.13;;;4.69;91.96
62103;BME280;48077;48.104;11.702;2023-01-15T05:03:22;94312.47;;;4.56;91.96
62103;BME280;48077;48.104;11.702;2023-01-15T05:05:45;94332.03;;;4.67;91.79
62103;BME280;48077;48.104;11.702;2023-01-15T05:08:09;94335.00;;;4.71;91.82
62103;BME280;48077;48.104;11.702;2023-01-15T05:10:32;94327.75;;;4.66;91.70
62103;BME280;48077;48.104;11.702;2023-01-15T05:12:56;94326.50;;;4.69;91.76
62103;BME280;48077;48.104;11.702;2023-01-15T05:15:19;94323.19;;;4.73;92.17
62103;BME280;48077;48.104;11.702;2023-01-15T05:17:42;94324.44;;;4.71;91.52
62103;BME280;48077;48.104;11.702;2023-01-15T05:20:07;94328.47;;;4.73;91.73
62103;BME280;48077;48.104;11.702;2023-01-15T05:22:30;94337.78;;;4.76;91.05
62103;BME280;48077;48.104;11.702;2023-01-15T05:24:54;94340.44;;;4.76;90.36
62103;BME280;48077;48.104;11.702;2023-01-15T05:27:17;94327.53;;;4.68;90.31
62103;BME280;48077;48.104;11.702;2023-01-15T05:29:40;94342.97;;;4.82;89.59
62103;BME280;48077;48.104;11.702;2023-01-15T05:32:04;94342.41;;;4.80;90.32
62103;BME280;48077;48.104;11.702;2023-01-15T05:34:27;94344.34;;;4.85;90.29
62103;BME280;48077;48.104;11.702;2023-01-15T05:36:50;94336.53;;;4.78;91.18
62103;BME280;48077;48.104;11.702;2023-01-15T05:39:14;94343.78;;;4.83;90.88
62103;BME280;48077;48.104;11.702;2023-01-15T05:41:37;94319.50;;;4.74;91.32
62103;BME280;48077;48.104;11.702;2023-01-15T05:44:24;94324.25;;;4.84;92.08
62103;BME280;48077;48.104;11.702;2023-01-15T05:46:48;94335.63;;;4.84;91.52
62103;BME280;48077;48.104;11.702;2023-01-15T05:49:15;94329.09;;;4.87;92.14
62103;BME280;48077;48.104;11.702;2023-01-15T05:51:39;94305.63;;;4.79;91.84
62103;BME280;48077;48.104;11.702;2023-01-15T05:54:04;94304.81;;;4.78;92.69
62103;BME280;48077;48.104;11.702;2023-01-15T05:56:28;94318.03;;;4.78;92.66
62103;BME280;48077;48.104;11.702;2023-01-15T05:58:51;94315.84;;;4.75;92.27
62103;BME280;48077;48.104;11.702;2023-01-15T06:01:15;94318.41;;;4.82;92.17
62103;BME280;48077;48.104;11.702;2023-01-15T06:03:38;94327.03;;;4.89;91.35
62103;BME280;48077;48.104;11.702;2023-01-15T06:06:04;94351.22;;;5.04;91.10
62103;BME280;48077;48.104;11.702;2023-01-15T06:08:27;94357.88;;;5.07;91.20
62103;BME280;48077;48.104;11.702;2023-01-15T06:10:50;94347.53;;;5.05;90.93
62103;BME280;48077;48.104;11.702;2023-01-15T06:13:14;94337.88;;;5.11;92.09
62103;BME280;48077;48.104;11.702;2023-01-15T06:15:37;94311.78;;;5.03;93.91
62103;BME280;48077;48.104;11.702;2023-01-15T06:18:01;94318.22;;;5.07;95.26
62103;BME280;48077;48.104;11.702;2023-01-15T06:20:24;94306.94;;;5.00;96.54
62103;BME280;48077;48.104;11.702;2023-01-15T06:22:48;94326.59;;;5.04;98.00
62103;BME280;48077;48.104;11.702;2023-01-15T06:25:11;94320.41;;;4.98;99.30
62103;BME280;48077;48.104;11.702;2023-01-15T06:27:34;94332.78;;;4.98;99.98
62103;BME280;48077;48.104;11.702;2023-01-15T06:29:58;94326.91;;;4.96;100.00
62103;BME280;48077;48.104;11.702;2023-01-15T06:32:21;94330.59;;;4.95;100.00
62103;BME280;48077;48.104;11.702;2023-01-15T06:34:44;94343.03;;;4.94;100.00
62103;BME280;48077;48.104;11.702;2023-01-15T06:37:08;94341.97;;;4.95;100.00
62103;BME280;48077;48.104;11.702;2023-01-15T06:39:31;94334.38;;;4.87;100.00
62103;BME280;48077;48.104;11.702;2023-01-15T06:41:54;94343.34;;;4.98;100.00
62103;BME280;48077;48.104;11.702;2023-01-15T06:44:36;94350.38;;;5.04;99.92
62103;BME280;48077;48.104;11.702;2023-01-15T06:47:18;94343.41;;;5.10;99.50
62103;BME280;48077;48.104;11.702;2023-01-15T06:49:42;94338.69;;;5.12;98.92
62103;BME280;48077;48.104;11.702;2023-01-15T06:52:06;94337.56;;;5.19;99.31
62103;BME280;48077;48.104;11.702;2023-01-15T06:54:30;94343.22;;;5.23;98.74
62103;BME280;48077;48.104;11.702;2023-01-15T06:56:53;94351.72;;;5.25;99.00
62103;BME280;48077;48.104;11.702;2023-01-15T06:59:18;94347.81;;;5.27;99.23
62103;BME280;48077;48.104;11.702;2023-01-15T07:01:41;94341.03;;;5.32;98.97
62103;BME280;48077;48.104;11.702;2023-01-15T07:04:04;94328.97;;;5.36;99.08
62103;BME280;48077;48.104;11.702;2023-01-15T07:06:28;94338.84;;;5.40;99.12
62103;BME280;48077;48.104;11.702;2023-01-15T07:08:52;94328.13;;;5.35;98.98
62103;BME280;48077;48.104;11.702;2023-01-15T07:11:15;94339.66;;;5.41;98.69
62103;BME280;48077;48.104;11.702;2023-01-15T07:13:39;94348.97;;;5.55;98.30
62103;BME280;48077;48.104;11.702;2023-01-15T07:16:03;94353.25;;;5.56;98.19
62103;BME280;48077;48.104;11.702;2023-01-15T07:18:29;94334.97;;;5.55;97.69
62103;BME280;48077;48.104;11.702;2023-01-15T07:20:54;94346.78;;;5.64;97.19
62103;BME280;48077;48.104;11.702;2023-01-15T07:23:18;94307.00;;;5.47;97.65
62103;BME280;48077;48.104;11.702;2023-01-15T07:25:42;94325.41;;;5.65;98.01
62103;BME280;48077;48.104;11.702;2023-01-15T07:28:05;94324.63;;;5.65;97.36
62103;BME280;48077;48.104;11.702;2023-01-15T07:30:28;94321.41;;;5.63;97.42
62103;BME280;48077;48.104;11.702;2023-01-15T07:32:52;94303.66;;;5.52;97.17
62103;BME280;48077;48.104;11.702;2023-01-15T07:35:17;94308.50;;;5.55;97.61
62103;BME280;48077;48.104;11.702;2023-01-15T07:37:41;94327.34;;;5.58;97.45
62103;BME280;48077;48.104;11.702;2023-01-15T07:40:06;94323.78;;;5.64;97.45
62103;BME280;48077;48.104;11.702;2023-01-15T07:42:29;94336.78;;;5.66;97.21
62103;BME280;48077;48.104;11.702;2023-01-15T07:45:11;94339.44;;;5.66;97.18
62103;BME280;48077;48.104;11.702;2023-01-15T07:47:54;94345.88;;;5.70;96.67
62103;BME280;48077;48.104;11.702;2023-01-15T07:50:36;94352.09;;;5.76;95.87
62103;BME280;48077;48.104;11.702;2023-01-15T07:52:59;94335.53;;;5.68;95.84
62103;BME280;48077;48.104;11.702;2023-01-15T07:55:22;94365.22;;;5.82;95.79
62103;BME280;48077;48.104;11.702;2023-01-15T07:57:46;94351.53;;;5.74;95.46
62103;BME280;48077;48.104;11.702;2023-01-15T08:00:15;94374.88;;;5.88;95.16
62103;BME280;48077;48.104;11.702;2023-01-15T08:02:41;94332.22;;;5.73;94.60
62103;BME280;48077;48.104;11.702;2023-01-15T08:05:04;94346.56;;;5.89;94.23
62103;BME280;48077;48.104;11.702;2023-01-15T08:07:28;94358.09;;;6.06;94.33
62103;BME280;48077;48.104;11.702;2023-01-15T08:09:51;94358.19;;;6.12;95.04
62103;BME280;48077;48.104;11.702;2023-01-15T08:12:16;94353.13;;;6.10;95.19
62103;BME280;48077;48.104;11.702;2023-01-15T08:14:58;94360.50;;;6.20;96.15
62103;BME280;48077;48.104;11.702;2023-01-15T08:17:37;94351.63;;;6.14;96.69
62103;BME280;48077;48.104;11.702;2023-01-15T08:20:03;94346.91;;;6.28;97.29
62103;BME280;48077;48.104;11.702;2023-01-15T08:22:27;94349.06;;;6.31;97.48
62103;BME280;48077;48.104;11.702;2023-01-15T08:24:50;94355.06;;;6.38;96.71
62103;BME280;48077;48.104;11.702;2023-01-15T08:27:14;94344.69;;;6.37;97.82
62103;BME280;48077;48.104;11.702;2023-01-15T08:29:37;94337.31;;;6.39;96.81
62103;BME280;48077;48.104;11.702;2023-01-15T08:32:01;94344.31;;;6.45;96.81
62103;BME280;48077;48.104;11.702;2023-01-15T08:34:24;94337.28;;;6.51;97.17
62103;BME280;48077;48.104;11.702;2023-01-15T08:36:47;94322.47;;;6.38;97.87
62103;BME280;48077;48.104;11.702;2023-01-15T08:39:11;94337.84;;;6.53;98.29
62103;BME280;48077;48.104;11.702;2023-01-15T08:41:35;94315.56;;;6.37;98.59
62103;BME280;48077;48.104;11.702;2023-01-15T08:43:58;94318.06;;;6.43;98.97
62103;BME280;48077;48.104;11.702;2023-01-15T08:46:22;94329.41;;;6.56;99.60
62103;BME280;48077;48.104;11.702;2023-01-15T08:48:45;94326.47;;;6.52;99.39
62103;BME280;48077;48.104;11.702;2023-01-15T08:51:11;94317.47;;;6.53;99.83
62103;BME280;48077;48.104;11.702;2023-01-15T08:53:36;94323.53;;;6.65;99.86
62103;BME280;48077;48.104;11.702;2023-01-15T08:55:59;94287.53;;;6.53;100.00
62103;BME280;48077;48.104;11.702;2023-01-15T08:58:23;94307.25;;;6.74;99.66
62103;BME280;48077;48.104;11.702;2023-01-15T09:00:46;94300.91;;;6.92;98.62
62103;BME280;48077;48.104;11.702;2023-01-15T09:03:10;94272.03;;;6.90;98.51
62103;BME280;48077;48.104;11.702;2023-01-15T09:05:35;94273.31;;;7.04;98.43
62103;BME280;48077;48.104;11.702;2023-01-15T09:07:59;94262.47;;;7.06;98.48
62103;BME280;48077;48.104;11.702;2023-01-15T09:10:24;94267.28;;;7.09;98.50
62103;BME280;48077;48.104;11.702;2023-01-15T09:12:47;94275.25;;;7.26;98.68
62103;BME280;48077;48.104;11.702;2023-01-15T09:15:11;94265.19;;;7.28;98.47
62103;BME280;48077;48.104;11.702;2023-01-15T09:17:34;94258.44;;;7.37;99.10
62103;BME280;48077;48.104;11.702;2023-01-15T09:20:02;94257.56;;;7.48;96.60
62103;BME280;48077;48.104;11.702;2023-01-15T09:22:26;94253.84;;;7.49;95.00
62103;BME280;48077;48.104;11.702;2023-01-15T09:24:52;94245.22;;;7.59;94.86
62103;BME280;48077;48.104;11.702;2023-01-15T09:27:16;94246.53;;;7.57;94.29
62103;BME280;48077;48.104;11.702;2023-01-15T09:29:39;94255.47;;;7.73;92.86
62103;BME280;48077;48.104;11.702;2023-01-15T09:32:02;94239.41;;;7.79;91.33
62103;BME280;48077;48.104;11.702;2023-01-15T09:34:26;94235.88;;;7.96;88.99
62103;BME280;48077;48.104;11.702;2023-01-15T09:36:49;94233.97;;;8.13;87.81
62103;BME280;48077;48.104;11.702;2023-01-15T09:39:13;94200.28;;;8.41;83.57
62103;BME280;48077;48.104;11.702;2023-01-15T09:45:04;94225.69;;;9.18;77.72
62103;BME280;48077;48.104;11.702;2023-01-15T09:47:46;94228.34;;;9.50;74.94
62103;BME280;48077;48.104;11.702;2023-01-15T09:55:21;94226.25;;;10.10;70.52
62103;BME280;48077;48.104;11.702;2023-01-15T09:57:53;94212.97;;;10.26;68.53
62103;BME280;48077;48.104;11.702;2023-01-15T10:00:22;94206.84;;;10.25;68.01
62103;BME280;48077;48.104;11.702;2023-01-15T10:05:49;94225.06;;;10.49;66.87
62103;BME280;48077;48.104;11.702;2023-01-15T10:08:23;94213.06;;;10.46;66.21
62103;BME280;48077;48.104;11.702;2023-01-15T10:10:54;94222.16;;;10.50;65.36
62103;BME280;48077;48.104;11.702;2023-01-15T10:13:25;94232.56;;;10.57;64.51
62103;BME280;48077;48.104;11.702;2023-01-15T10:15:50;94225.59;;;10.56;64.00
62103;BME280;48077;48.104;11.702;2023-01-15T10:18:20;94254.44;;;10.74;62.21
62103;BME280;48077;48.104;11.702;2023-01-15T10:23:43;94344.81;;;10.13;71.04
62103;BME280;48077;48.104;11.702;2023-01-15T10:36:54;94417.69;;;6.85;79.95
62103;BME280;48077;48.104;11.702;2023-01-15T10:39:29;94418.78;;;6.72;82.21
62103;BME280;48077;48.104;11.702;2023-01-15T10:44:49;94459.50;;;6.19;82.78
62103;BME280;48077;48.104;11.702;2023-01-15T10:47:17;94465.38;;;6.09;82.86
62103;BME280;48077;48.104;11.702;2023-01-15T10:49:45;94470.03;;;5.83;84.14
62103;BME280;48077;48.104;11.702;2023-01-15T10:52:25;94479.78;;;5.71;85.94
62103;BME280;48077;48.104;11.702;2023-01-15T10:54:51;94464.25;;;5.63;87.04
62103;BME280;48077;48.104;11.702;2023-01-15T10:57:22;94467.69;;;5.63;86.65
62103;BME280;48077;48.104;11.702;2023-01-15T10:59:56;94460.75;;;5.51;87.61
62103;BME280;48077;48.104;11.702;2023-01-15T11:05:04;94471.25;;;5.57;87.53
62103;BME280;48077;48.104;11.702;2023-01-15T11:07:35;94449.38;;;5.62;87.95
62103;BME280;48077;48.104;11.702;2023-01-15T11:10:03;94468.75;;;5.74;86.60
62103;BME280;48077;48.104;11.702;2023-01-15T11:12:28;94463.56;;;5.67;85.90
62103;BME280;48077;48.104;11.702;2023-01-15T11:15:22;94449.00;;;5.46;86.26
62103;BME280;48077;48.104;11.702;2023-01-15T11:18:27;94468.88;;;5.37;84.92
62103;BME280;48077;48.104;11.702;2023-01-15T11:21:12;94466.16;;;5.14;86.00
62103;BME280;48077;48.104;11.702;2023-01-15T11:23:37;94493.47;;;5.07;86.96
62103;BME280;48077;48.104;11.702;2023-01-15T11:26:01;94480.34;;;5.01;86.90
62103;BME280;48077;48.104;11.702;2023-01-15T11:28:39;94503.66;;;5.04;88.08
62103;BME280;48077;48.104;11.702;2023-01-15T11:31:03;94509.78;;;5.04;88.21
62103;BME280;48077;48.104;11.702;2023-01-15T11:33:27;94512.81;;;4.90;89.06
62103;BME280;48077;48.104;11.702;2023-01-15T11:35:53;94527.31;;;4.99;88.98
62103;BME280;48077;48.104;11.702;2023-01-15T11:38:20;94536.34;;;4.91;90.19
62103;BME280;48077;48.104;11.702;2023-01-15T11:41:18;94541.28;;;4.88;90.09
62103;BME280;48077;48.104;11.702;2023-01-15T11:43:41;94533.78;;;4.66;91.09
62103;BME280;48077;48.104;11.702;2023-01-15T11:46:29;94552.47;;;4.64;92.66
62103;BME280;48077;48.104;11.702;2023-01-15T11:49:17;94570.09;;;4.52;94.33
62103;BME280;48077;48.104;11.702;2023-01-15T11:52:01;94578.50;;;4.42;96.22
62103;BME280;48077;48.104;11.702;2023-01-15T11:54:25;94579.41;;;4.30;97.85
62103;BME280;48077;48.104;11.702;2023-01-15T11:56:49;94608.13;;;4.19;99.55
62103;BME280;48077;48.104;11.702;2023-01-15T11:59:15;94615.06;;;4.14;100.00
62103;BME280;48077;48.104;11.702;2023-01-15T12:01:59;94619.94;;;4.10;100.00
62103;BME280;48077;48.104;11.702;2023-01-15T12:04:24;94629.94;;;4.01;100.00
62103;BME280;48077;48.104;11.702;2023-01-15T12:06:49;94641.00;;;3.92;100.00
62103;BME280;48077;48.104;11.702;2023-01-15T12:12:26;94642.09;;;3.77;100.00
62103;BME280;48077;48.104;11.702;2023-01-15T12:17:44;94655.50;;;3.62;100.00
62103;BME280;48077;48.104;11.702;2023-01-15T12:20:51;94670.13;;;3.65;100.00
62103;BME280;48077;48.104;11.702;2023-01-15T12:26:17;94680.72;;;3.58;100.00
62103;BME280;48077;48.104;11.702;2023-01-15T12:28:51;94687.78;;;3.58;100.00
62103;BME280;48077;48.104;11.702;2023-01-15T12:31:20;94683.19;;;3.47;100.00
62103;BME280;48077;48.104;11.702;2023-01-15T12:34:05;94694.50;;;3.54;100.00
62103;BME280;48077;48.104;11.702;2023-01-15T12:36:45;94693.28;;;3.50;100.00
62103;BME280;48077;48.104;11.702;2023-01-15T12:41:37;94694.53;;;3.47;100.00
62103;BME280;48077;48.104;11.702;2023-01-15T12:44:47;94695.75;;;3.44;100.00
62103;BME280;48077;48.104;11.702;2023-01-15T12:47:55;94691.88;;;3.47;100.00
62103;BME280;48077;48.104;11.702;2023-01-15T12:50:37;94705.00;;;3.67;100.00
62103;BME280;48077;48.104;11.702;2023-01-15T13:00:49;94712.34;;;3.58;100.00
62103;BME280;48077;48.104;11.702;2023-01-15T13:04:15;94716.63;;;3.53;100.00
62103;BME280;48077;48.104;11.702;2023-01-15T13:06:12;94737.50;;;3.61;100.00
62103;BME280;48077;48.104;11.702;2023-01-15T13:09:04;94716.81;;;3.51;100.00
62103;BME280;48077;48.104;11.702;2023-01-15T13:11:31;94721.91;;;3.46;100.00
62103;BME280;48077;48.104;11.702;2023-01-15T13:13:54;94740.75;;;3.56;100.00
62103;BME280;48077;48.104;11.702;2023-01-15T13:19:31;94741.56;;;3.57;100.00
62103;BME280;48077;48.104;11.702;2023-01-15T13:22:02;94736.91;;;3.52;100.00
62103;BME280;48077;48.104;11.702;2023-01-15T13:32:53;94749.88;;;3.54;100.00
62103;BME280;48077;48.104;11.702;2023-01-15T13:35:31;94779.28;;;3.57;100.00
62103;BME280;48077;48.104;11.702;2023-01-15T13:38:02;94767.31;;;3.55;100.00
62103;BME280;48077;48.104;11.702;2023-01-15T13:40:34;94782.31;;;3.61;100.00
62103;BME280;48077;48.104;11.702;2023-01-15T13:42:58;94784.56;;;3.57;100.00
62103;BME280;48077;48.104;11.702;2023-01-15T13:45:40;94786.78;;;3.60;100.00
62103;BME280;48077;48.104;11.702;2023-01-15T13:48:14;94791.22;;;3.60;100.00
62103;BME280;48077;48.104;11.702;2023-01-15T13:50:41;94808.09;;;3.59;100.00
62103;BME280;48077;48.104;11.702;2023-01-15T13:53:13;94806.25;;;3.59;100.00
62103;BME280;48077;48.104;11.702;2023-01-15T13:55:41;94796.72;;;3.52;100.00
62103;BME280;48077;48.104;11.702;2023-01-15T13:58:28;94810.75;;;3.52;100.00
62103;BME280;48077;48.104;11.702;2023-01-15T14:01:25;94816.22;;;3.44;100.00
62103;BME280;48077;48.104;11.702;2023-01-15T14:06:55;94829.81;;;3.41;100.00
62103;BME280;48077;48.104;11.702;2023-01-15T14:17:05;94853.53;;;3.34;100.00
62103;BME280;48077;48.104;11.702;2023-01-15T14:19:41;94860.84;;;3.32;100.00
62103;BME280;48077;48.104;11.702;2023-01-15T14:22:36;94861.63;;;3.33;100.00
62103;BME280;48077;48.104;11.702;2023-01-15T14:25:39;94854.97;;;3.23;100.00
62103;BME280;48077;48.104;11.702;2023-01-15T14:36:18;94893.28;;;3.13;100.00
62103;BME280;48077;48.104;11.702;2023-01-15T14:38:51;94870.75;;;2.97;100.00